createdAt,value
2022-12-03T00:00:10.443Z,9.457176
2022-12-03T00:01:06.184Z,9.457264
2022-12-03T00:02:04.216Z,9.457206
2022-12-03T00:03:04.315Z,9.457253
2022-12-03T00:04:04.208Z,9.457182
2022-12-03T00:05:04.137Z,9.457118
2022-12-03T00:06:04.118Z,9.457091
2022-12-03T00:07:04.123Z,9.457157
2022-12-03T00:08:04.177Z,9.457165
2022-12-03T00:09:05.099Z,9.457191
2022-12-03T00:10:04.085Z,9.457146
2022-12-03T00:11:04.081Z,9.457086
2022-12-03T00:12:04.088Z,9.457123
2022-12-03T00:13:04.082Z,9.457129
2022-12-03T00:14:04.044Z,9.457355
2022-12-03T00:15:04.051Z,9.457294
2022-12-03T00:16:04.073Z,9.457281
2022-12-03T00:17:04.029Z,9.457281
2022-12-03T00:18:04.027Z,9.457117
2022-12-03T00:19:04.016Z,9.457319
2022-12-03T00:20:04.011Z,9.457200
2022-12-03T00:21:03.989Z,9.457223
2022-12-03T00:22:03.982Z,9.457267
2022-12-03T00:23:03.992Z,9.457127
2022-12-03T00:24:03.965Z,9.457210
2022-12-03T00:25:03.954Z,9.457384
2022-12-03T00:26:03.944Z,9.457361
2022-12-03T00:27:03.943Z,9.457299
2022-12-03T00:28:03.962Z,9.457258
2022-12-03T00:29:03.917Z,9.457058
2022-12-03T00:30:03.925Z,9.457149
2022-12-03T00:31:03.946Z,9.457073
2022-12-03T00:32:03.890Z,9.457216
2022-12-03T00:33:03.907Z,9.457318
2022-12-03T00:34:03.888Z,9.457183
2022-12-03T00:35:03.871Z,9.457185
2022-12-03T00:36:03.850Z,9.456821
2022-12-03T00:37:03.851Z,9.456910
2022-12-03T00:38:03.860Z,9.456887
2022-12-03T00:39:03.825Z,9.457209
2022-12-03T00:40:03.860Z,9.457248
2022-12-03T00:41:03.817Z,9.457299
2022-12-03T00:42:03.792Z,9.457210
2022-12-03T00:43:03.828Z,9.457279
2022-12-03T00:44:03.783Z,9.457362
2022-12-03T00:45:03.777Z,9.457429
2022-12-03T00:46:03.842Z,9.457372
2022-12-03T00:47:03.864Z,9.457327
2022-12-03T00:48:03.743Z,9.457194
2022-12-03T00:49:03.750Z,9.457189
2022-12-03T00:50:03.722Z,9.457169
2022-12-03T00:51:03.736Z,9.457195
2022-12-03T00:52:03.712Z,9.457232
2022-12-03T00:53:03.757Z,9.457200
2022-12-03T00:54:03.704Z,9.457219
2022-12-03T00:55:04.687Z,9.457147
2022-12-03T00:56:03.678Z,9.457088
2022-12-03T00:57:03.674Z,9.456998
2022-12-03T00:58:03.649Z,9.456857
2022-12-03T00:59:03.661Z,9.457083
2022-12-03T01:00:03.654Z,9.457189
2022-12-03T01:01:03.634Z,9.457316
2022-12-03T01:02:03.693Z,9.457401
2022-12-03T01:03:03.614Z,9.457314
2022-12-03T01:04:03.658Z,9.457143
2022-12-03T01:05:03.692Z,9.457299
2022-12-03T01:06:03.576Z,9.457287
2022-12-03T01:07:03.581Z,9.457120
2022-12-03T01:08:03.695Z,9.456996
2022-12-03T01:09:03.581Z,9.456986
2022-12-03T01:10:03.539Z,9.457115
2022-12-03T01:11:03.544Z,9.457090
2022-12-03T01:12:03.537Z,9.457121
2022-12-03T01:13:03.516Z,9.457158
2022-12-03T01:14:03.540Z,9.457265
2022-12-03T01:15:03.497Z,9.457236
2022-12-03T01:16:03.585Z,9.457234
2022-12-03T01:17:03.486Z,9.457264
2022-12-03T01:18:03.466Z,9.457173
2022-12-03T01:19:03.475Z,9.457172
2022-12-03T01:20:03.470Z,9.457209
2022-12-03T01:21:03.442Z,9.457134
2022-12-03T01:22:03.436Z,9.457119
2022-12-03T01:23:03.427Z,9.457188
2022-12-03T01:24:03.427Z,9.457191
2022-12-03T01:25:03.393Z,9.457191
2022-12-03T01:26:03.386Z,9.457209
2022-12-03T01:27:03.385Z,9.457213
2022-12-03T01:28:03.363Z,9.457094
2022-12-03T01:29:03.465Z,9.457133
2022-12-03T01:30:03.353Z,9.457263
2022-12-03T01:31:03.375Z,9.457135
2022-12-03T01:32:03.329Z,9.457214
2022-12-03T01:33:03.314Z,9.457316
2022-12-03T01:34:03.326Z,9.457298
2022-12-03T01:35:03.298Z,9.457253
2022-12-03T01:36:03.285Z,9.457211
2022-12-03T01:37:03.285Z,9.457201
2022-12-03T01:38:03.271Z,9.457232
2022-12-03T01:39:03.331Z,9.457294
2022-12-03T01:40:03.281Z,9.457168
2022-12-03T01:41:05.982Z,9.457282
2022-12-03T01:42:05.233Z,9.457176
2022-12-03T01:43:03.226Z,9.457079
2022-12-03T01:44:03.233Z,9.457130
2022-12-03T01:45:03.206Z,9.457070
2022-12-03T01:46:03.230Z,9.457162
2022-12-03T01:47:03.267Z,9.457214
2022-12-03T01:48:03.174Z,9.457354
2022-12-03T01:49:03.183Z,9.457159
2022-12-03T01:50:03.161Z,9.457235
2022-12-03T01:51:03.142Z,9.457127
2022-12-03T01:52:03.140Z,9.457150
2022-12-03T01:53:03.119Z,9.457152
2022-12-03T01:54:03.152Z,9.457247
2022-12-03T01:55:03.105Z,9.457230
2022-12-03T01:56:03.108Z,9.457277
2022-12-03T01:57:03.081Z,9.457257
2022-12-03T01:58:04.078Z,9.457233
2022-12-03T01:59:03.085Z,9.457253
2022-12-03T02:00:03.069Z,9.457329
2022-12-03T02:01:03.038Z,9.457288
2022-12-03T02:02:03.094Z,9.457194
2022-12-03T02:03:03.025Z,9.457189
2022-12-03T02:04:03.098Z,9.457329
2022-12-03T02:05:03.027Z,9.457237
2022-12-03T02:06:02.997Z,9.457300
2022-12-03T02:07:03.008Z,9.457263
2022-12-03T02:08:03.031Z,9.457231
2022-12-03T02:09:02.984Z,9.457291
2022-12-03T02:10:02.961Z,9.457204
2022-12-03T02:11:02.948Z,9.457188
2022-12-03T02:12:02.943Z,9.457173
2022-12-03T02:13:02.944Z,9.457090
2022-12-03T02:14:02.946Z,9.457214
2022-12-03T02:15:02.917Z,9.457185
2022-12-03T02:16:02.927Z,9.457278
2022-12-03T02:17:02.912Z,9.457153
2022-12-03T02:18:02.887Z,9.457107
2022-12-03T02:19:02.896Z,9.457161
2022-12-03T02:20:02.864Z,9.457258
2022-12-03T02:21:03.849Z,9.457338
2022-12-03T02:22:02.855Z,9.457079
2022-12-03T02:23:02.844Z,9.457029
2022-12-03T02:24:02.847Z,9.457112
2022-12-03T02:25:02.834Z,9.456940
2022-12-03T02:26:02.805Z,9.456893
2022-12-03T02:27:02.813Z,9.456814
2022-12-03T02:28:02.817Z,9.456828
2022-12-03T02:29:02.812Z,9.457016
2022-12-03T02:30:02.777Z,9.457034
2022-12-03T02:31:02.818Z,9.456896
2022-12-03T02:32:02.760Z,9.456946
2022-12-03T02:33:02.741Z,9.456783
2022-12-03T02:34:02.747Z,9.456785
2022-12-03T02:35:03.728Z,9.457107
2022-12-03T02:36:04.048Z,9.457273
2022-12-03T02:37:03.740Z,9.457460
2022-12-03T02:38:02.703Z,9.457221
2022-12-03T02:39:02.711Z,9.457125
2022-12-03T02:40:02.687Z,9.457193
2022-12-03T02:41:02.679Z,9.457135
2022-12-03T02:42:02.716Z,9.457127
2022-12-03T02:43:02.656Z,9.456974
2022-12-03T02:44:02.676Z,9.457069
2022-12-03T02:45:05.385Z,9.457318
2022-12-03T02:46:03.634Z,9.457316
2022-12-03T02:47:02.707Z,9.457101
2022-12-03T02:48:02.617Z,9.456835
2022-12-03T02:49:02.634Z,9.456925
2022-12-03T02:50:02.586Z,9.457083
2022-12-03T02:51:02.579Z,9.457175
2022-12-03T02:52:02.588Z,9.457294
2022-12-03T02:53:02.567Z,9.457275
2022-12-03T02:54:02.574Z,9.457284
2022-12-03T02:55:02.548Z,9.457211
2022-12-03T02:56:02.541Z,9.457339
2022-12-03T02:57:02.525Z,9.457314
2022-12-03T02:58:02.522Z,9.457247
2022-12-03T02:59:02.525Z,9.457302
2022-12-03T03:00:02.495Z,9.457355
2022-12-03T03:01:02.529Z,9.457298
2022-12-03T03:02:02.524Z,9.457297
2022-12-03T03:03:02.482Z,9.457173
2022-12-03T03:04:02.479Z,9.457228
2022-12-03T03:05:02.448Z,9.457369
2022-12-03T03:19:49.096Z,9.458827
2022-12-03T03:20:49.071Z,9.458107
2022-12-03T03:21:49.060Z,9.457608
2022-12-03T03:22:49.050Z,9.458718
2022-12-03T03:23:49.064Z,9.457355
2022-12-03T03:24:49.032Z,9.457083
2022-12-03T03:25:49.024Z,9.456922
2022-12-03T03:26:49.014Z,9.456626
2022-12-03T03:27:49.006Z,9.456718
2022-12-03T03:28:49.013Z,9.457171
2022-12-03T03:29:48.984Z,9.457118
2022-12-03T03:30:48.974Z,9.457314
2022-12-03T03:31:49.049Z,9.457467
2022-12-03T03:32:48.956Z,9.457514
2022-12-03T03:33:48.970Z,9.457451
2022-12-03T03:34:48.955Z,9.457212
2022-12-03T03:35:48.929Z,9.457318
2022-12-03T03:36:48.922Z,9.457406
2022-12-03T03:37:48.912Z,9.457200
2022-12-03T03:38:48.914Z,9.457171
2022-12-03T03:39:48.887Z,9.457221
2022-12-03T03:40:48.883Z,9.457209
2022-12-03T03:41:48.882Z,9.457319
2022-12-03T03:42:48.862Z,9.457387
2022-12-03T03:44:20.773Z,9.457318
2022-12-03T03:44:48.840Z,9.457376
2022-12-03T03:45:48.850Z,9.457346
2022-12-03T03:46:48.823Z,9.457327
2022-12-03T03:47:48.807Z,9.457314
2022-12-03T03:48:48.791Z,9.457395
2022-12-03T03:49:49.806Z,9.457381
2022-12-03T03:50:48.785Z,9.457426
2022-12-03T03:51:48.783Z,9.457387
2022-12-03T03:52:48.768Z,9.457428
2022-12-03T03:53:48.755Z,9.457421
2022-12-03T03:54:48.777Z,9.457393
2022-12-03T03:55:48.725Z,9.457342
2022-12-03T03:56:48.724Z,9.457434
2022-12-03T03:57:48.711Z,9.457431
2022-12-03T03:58:48.704Z,9.457339
2022-12-03T03:59:48.700Z,9.457347
2022-12-03T04:00:48.715Z,9.457393
2022-12-03T04:01:48.746Z,9.457389
2022-12-03T04:02:48.665Z,9.457421
2022-12-03T04:03:48.698Z,9.457313
2022-12-03T04:04:48.660Z,9.457324
2022-12-03T04:05:48.636Z,9.457335
2022-12-03T04:06:48.638Z,9.457175
2022-12-03T04:07:48.649Z,9.457197
2022-12-03T04:08:48.603Z,9.457312
2022-12-03T04:09:48.613Z,9.457315
2022-12-03T04:10:48.589Z,9.457334
2022-12-03T04:11:48.577Z,9.457417
2022-12-03T04:12:48.555Z,9.457327
2022-12-03T04:13:48.550Z,9.457307
2022-12-03T04:14:48.632Z,9.457343
2022-12-03T04:15:48.534Z,9.457344
2022-12-03T04:16:48.559Z,9.457313
2022-12-03T04:17:48.515Z,9.457249
2022-12-03T04:18:48.527Z,9.457408
2022-12-03T04:19:48.525Z,9.457342
2022-12-03T04:20:48.483Z,9.457144
2022-12-03T04:21:48.475Z,9.457113
2022-12-03T04:22:48.469Z,9.457354
2022-12-03T04:23:48.466Z,9.457079
2022-12-03T04:24:48.482Z,9.457305
2022-12-03T04:25:48.444Z,9.457198
2022-12-03T04:26:48.447Z,9.457300
2022-12-03T04:27:48.424Z,9.457327
2022-12-03T04:28:48.405Z,9.457297
2022-12-03T04:29:48.410Z,9.457323
2022-12-03T04:30:48.432Z,9.457325
2022-12-03T04:31:48.380Z,9.457335
2022-12-03T04:32:48.377Z,9.457238
2022-12-03T04:33:48.360Z,9.457241
2022-12-03T04:34:48.371Z,9.457241
2022-12-03T04:35:48.402Z,9.457241
2022-12-03T04:36:49.333Z,9.457194
2022-12-03T04:37:48.317Z,9.457194
2022-12-03T04:38:48.308Z,9.457194
2022-12-03T04:39:48.311Z,9.457221
2022-12-03T04:40:48.283Z,9.457219
2022-12-03T04:41:48.276Z,9.457293
2022-12-03T04:42:48.263Z,9.457279
2022-12-03T04:43:48.263Z,9.457177
2022-12-03T04:44:48.264Z,9.457297
2022-12-03T04:45:48.357Z,9.457345
2022-12-03T04:46:48.268Z,9.457244
2022-12-03T04:47:48.216Z,9.457287
2022-12-03T04:48:48.198Z,9.457335
2022-12-03T04:49:48.207Z,9.457422
2022-12-03T04:50:48.189Z,9.457422
2022-12-03T04:51:48.183Z,9.457422
2022-12-03T04:52:48.188Z,9.457422
2022-12-03T04:53:48.157Z,9.457150
2022-12-03T04:54:48.211Z,9.457171
2022-12-03T04:55:48.145Z,9.457299
2022-12-03T04:56:48.120Z,9.457403
2022-12-03T04:57:48.119Z,9.457282
2022-12-03T04:58:48.116Z,9.457250
2022-12-03T04:59:48.135Z,9.457291
2022-12-03T05:00:48.091Z,9.457310
2022-12-03T05:01:48.143Z,9.457298
2022-12-03T05:02:48.133Z,9.457228
2022-12-03T05:03:48.064Z,9.457307
2022-12-03T05:04:48.054Z,9.457397
2022-12-03T05:05:48.056Z,9.457441
2022-12-03T05:06:48.064Z,9.457416
2022-12-03T05:07:48.119Z,9.457360
2022-12-03T05:08:48.019Z,9.457359
2022-12-03T05:09:48.038Z,9.457372
2022-12-03T05:10:48.008Z,9.457298
2022-12-03T05:11:47.998Z,9.457287
2022-12-03T05:12:47.984Z,9.457378
2022-12-03T05:13:47.979Z,9.457400
2022-12-03T05:14:47.985Z,9.457370
2022-12-03T05:15:47.957Z,9.457301
2022-12-03T05:16:48.024Z,9.457455
2022-12-03T05:17:47.934Z,9.457278
2022-12-03T05:18:47.928Z,9.457218
2022-12-03T05:19:47.957Z,9.457257
2022-12-03T05:20:53.262Z,9.457295
2022-12-03T05:21:48.903Z,9.457070
2022-12-03T05:22:47.909Z,9.457254
2022-12-03T05:23:47.905Z,9.457183
2022-12-03T05:24:47.877Z,9.457079
2022-12-03T05:25:47.860Z,9.457323
2022-12-03T05:26:47.847Z,9.457517
2022-12-03T05:27:47.849Z,9.457203
2022-12-03T05:28:47.828Z,9.457397
2022-12-03T05:29:47.863Z,9.457594
2022-12-03T05:30:47.928Z,9.457308
2022-12-03T05:31:47.801Z,9.457299
2022-12-03T05:32:47.789Z,9.457366
2022-12-03T05:33:47.784Z,9.457429
2022-12-03T05:34:47.820Z,9.457442
2022-12-03T05:35:47.767Z,9.457482
2022-12-03T05:36:47.756Z,9.456986
2022-12-03T05:37:47.745Z,9.456889
2022-12-03T05:38:47.737Z,9.457040
2022-12-03T05:39:47.762Z,9.457146
2022-12-03T05:40:47.713Z,9.457273
2022-12-03T05:41:47.710Z,9.457358
2022-12-03T05:42:47.719Z,9.457273
2022-12-03T05:43:47.690Z,9.457270
2022-12-03T05:44:47.706Z,9.457304
2022-12-03T05:45:47.708Z,9.457296
2022-12-03T05:46:47.666Z,9.457308
2022-12-03T05:47:47.670Z,9.457240
2022-12-03T05:48:47.638Z,9.457315
2022-12-03T05:49:47.628Z,9.457270
2022-12-03T05:50:48.639Z,9.457204
2022-12-03T05:51:47.612Z,9.457385
2022-12-03T05:52:47.606Z,9.457350
2022-12-03T05:53:47.603Z,9.457375
2022-12-03T05:54:47.587Z,9.457356
2022-12-03T05:55:47.604Z,9.457382
2022-12-03T05:56:47.565Z,9.457329
2022-12-03T05:57:48.564Z,9.457252
2022-12-03T05:58:47.549Z,9.457369
2022-12-03T05:59:47.544Z,9.457397
2022-12-03T06:00:47.543Z,9.457351
2022-12-03T06:01:47.518Z,9.457350
2022-12-03T06:02:47.633Z,9.457420
2022-12-03T06:03:47.665Z,9.457525
2022-12-03T06:04:47.484Z,9.457525
2022-12-03T06:05:47.498Z,9.457703
2022-12-03T06:06:47.468Z,9.457726
2022-12-03T06:07:47.557Z,9.457643
2022-12-03T06:08:47.457Z,9.457643
2022-12-03T06:09:47.442Z,9.457784
2022-12-03T06:10:47.460Z,9.457535
2022-12-03T06:11:47.486Z,9.457615
2022-12-03T06:12:47.410Z,9.457779
2022-12-03T06:13:47.402Z,9.457779
2022-12-03T06:14:47.394Z,9.457779
2022-12-03T06:15:47.417Z,9.457513
2022-12-03T06:16:47.421Z,9.457341
2022-12-03T06:17:47.375Z,9.457181
2022-12-03T06:18:47.351Z,9.457376
2022-12-03T06:19:47.348Z,9.457327
2022-12-03T06:20:47.351Z,9.457496
2022-12-03T06:21:47.329Z,9.457390
2022-12-03T06:22:48.324Z,9.457661
2022-12-03T06:23:47.344Z,9.457058
2022-12-03T06:24:47.305Z,9.457203
2022-12-03T06:25:47.317Z,9.457267
2022-12-03T06:26:47.282Z,9.457152
2022-12-03T06:27:47.272Z,9.457385
2022-12-03T06:28:47.255Z,9.457505
2022-12-03T06:29:47.249Z,9.457401
2022-12-03T06:30:47.282Z,9.457289
2022-12-03T06:31:47.273Z,9.457391
2022-12-03T06:32:47.228Z,9.457376
2022-12-03T06:33:47.217Z,9.457438
2022-12-03T06:34:47.209Z,9.457479
2022-12-03T06:35:47.217Z,9.457334
2022-12-03T06:36:47.193Z,9.457134
2022-12-03T06:37:47.180Z,9.457298
2022-12-03T06:38:47.164Z,9.457232
2022-12-03T06:39:47.167Z,9.457220
2022-12-03T06:40:47.189Z,9.457231
2022-12-03T06:41:47.138Z,9.457370
2022-12-03T06:42:47.126Z,9.457449
2022-12-03T06:43:47.121Z,9.457335
2022-12-03T06:44:47.117Z,9.457460
2022-12-03T06:45:48.029Z,9.457532
2022-12-03T06:46:48.140Z,9.457555
2022-12-03T06:47:47.079Z,9.457548
2022-12-03T06:48:47.082Z,9.457500
2022-12-03T06:49:47.072Z,9.457477
2022-12-03T06:50:47.072Z,9.457603
2022-12-03T06:51:47.028Z,9.457512
2022-12-03T06:52:47.043Z,9.457355
2022-12-03T06:53:47.026Z,9.457510
2022-12-03T06:54:47.030Z,9.457272
2022-12-03T06:55:47.028Z,9.457321
2022-12-03T06:56:46.993Z,9.457475
2022-12-03T06:57:46.989Z,9.457594
2022-12-03T06:58:46.975Z,9.457273
2022-12-03T06:59:46.968Z,9.457529
2022-12-03T07:00:46.969Z,9.457350
2022-12-03T07:01:48.009Z,9.457113
2022-12-03T07:02:47.032Z,9.457243
2022-12-03T07:03:46.931Z,9.457138
2022-12-03T07:04:46.925Z,9.457090
2022-12-03T07:05:46.933Z,9.457297
2022-12-03T07:06:46.897Z,9.457223
2022-12-03T07:07:46.909Z,9.457148
2022-12-03T07:08:46.878Z,9.457286
2022-12-03T07:09:46.871Z,9.457217
2022-12-03T07:10:46.889Z,9.457165
2022-12-03T07:11:46.844Z,9.457172
2022-12-03T07:12:46.848Z,9.457259
2022-12-03T07:13:46.835Z,9.457169
2022-12-03T07:14:46.824Z,9.457289
2022-12-03T07:15:46.936Z,9.457247
2022-12-03T07:16:46.817Z,9.457601
2022-12-03T07:17:46.799Z,9.458054
2022-12-03T07:18:46.787Z,9.458000
2022-12-03T07:19:46.780Z,9.458209
2022-12-03T07:20:46.806Z,9.458222
2022-12-03T07:21:46.763Z,9.458097
2022-12-03T07:22:46.747Z,9.458195
2022-12-03T07:23:46.738Z,9.458502
2022-12-03T07:24:46.736Z,9.458527
2022-12-03T07:25:46.743Z,9.458558
2022-12-03T07:26:46.711Z,9.458392
2022-12-03T07:27:46.706Z,9.458473
2022-12-03T07:28:46.701Z,9.458261
2022-12-03T07:29:46.690Z,9.458107
2022-12-03T07:30:46.695Z,9.458366
2022-12-03T07:31:46.714Z,9.458483
2022-12-03T07:32:46.654Z,9.458385
2022-12-03T07:33:46.647Z,9.457809
2022-12-03T07:34:46.641Z,9.458015
2022-12-03T07:35:46.674Z,9.457874
2022-12-03T07:36:46.622Z,9.457425
2022-12-03T07:37:46.639Z,9.457411
2022-12-03T07:38:46.602Z,9.457787
2022-12-03T07:39:46.584Z,9.458280
2022-12-03T07:40:46.615Z,9.458435
2022-12-03T07:41:46.574Z,9.458595
2022-12-03T07:42:46.567Z,9.458595
2022-12-03T07:43:46.559Z,9.457219
2022-12-03T07:44:46.550Z,9.456884
2022-12-03T07:45:46.553Z,9.456263
2022-12-03T07:46:46.607Z,9.456497
2022-12-03T07:47:46.518Z,9.456891
2022-12-03T07:48:46.514Z,9.457393
2022-12-03T07:49:46.506Z,9.457809
2022-12-03T07:50:46.512Z,9.457397
2022-12-03T07:51:46.494Z,9.457397
2022-12-03T07:52:46.474Z,9.457380
2022-12-03T07:53:46.472Z,9.457138
2022-12-03T07:54:46.464Z,9.456898
2022-12-03T07:55:46.477Z,9.456717
2022-12-03T07:56:46.444Z,9.456742
2022-12-03T07:57:46.435Z,9.456814
2022-12-03T07:58:46.425Z,9.457076
2022-12-03T07:59:46.409Z,9.457159
2022-12-03T08:00:46.443Z,9.457206
2022-12-03T08:01:46.465Z,9.457177
2022-12-03T08:02:46.461Z,9.457135
2022-12-03T08:03:46.373Z,9.457087
2022-12-03T08:04:46.372Z,9.457254
2022-12-03T08:05:46.382Z,9.457174
2022-12-03T08:06:46.351Z,9.457200
2022-12-03T08:07:46.427Z,9.457029
2022-12-03T08:08:46.332Z,9.457124
2022-12-03T08:09:46.339Z,9.457082
2022-12-03T08:10:46.354Z,9.457150
2022-12-03T08:11:46.305Z,9.457223
2022-12-03T08:12:46.308Z,9.457233
2022-12-03T08:13:46.285Z,9.457360
2022-12-03T08:14:46.280Z,9.457282
2022-12-03T08:15:46.295Z,9.457201
2022-12-03T08:16:46.319Z,9.457360
2022-12-03T08:17:46.258Z,9.457458
2022-12-03T08:18:46.244Z,9.457303
2022-12-03T08:19:46.249Z,9.457355
2022-12-03T08:20:46.253Z,9.457305
2022-12-03T08:21:46.220Z,9.457356
2022-12-03T08:22:46.217Z,9.457384
2022-12-03T08:23:46.207Z,9.457401
2022-12-03T08:24:46.203Z,9.457408
2022-12-03T08:25:46.204Z,9.457415
2022-12-03T08:26:46.178Z,9.457374
2022-12-03T08:27:46.165Z,9.457271
2022-12-03T08:28:46.149Z,9.457329
2022-12-03T08:29:46.146Z,9.457331
2022-12-03T08:30:46.145Z,9.457283
2022-12-03T08:31:46.176Z,9.457335
2022-12-03T08:32:46.119Z,9.457334
2022-12-03T08:33:46.117Z,9.457309
2022-12-03T08:34:46.107Z,9.457293
2022-12-03T08:35:46.111Z,9.457255
2022-12-03T08:36:46.083Z,9.457340
2022-12-03T08:37:46.065Z,9.457244
2022-12-03T08:38:46.069Z,9.457088
2022-12-03T08:39:46.052Z,9.457187
2022-12-03T08:40:46.069Z,9.457172
2022-12-03T08:41:46.035Z,9.457377
2022-12-03T08:42:46.026Z,9.457345
2022-12-03T08:43:46.017Z,9.457245
2022-12-03T08:44:46.049Z,9.457260
2022-12-03T08:45:46.096Z,9.457208
2022-12-03T08:46:45.991Z,9.457287
2022-12-03T08:47:45.983Z,9.457303
2022-12-03T08:48:49.045Z,9.457245
2022-12-03T08:49:46.966Z,9.457209
2022-12-03T08:50:45.974Z,9.457302
2022-12-03T08:51:45.946Z,9.457283
2022-12-03T08:52:45.932Z,9.457056
2022-12-03T08:53:45.940Z,9.457152
2022-12-03T08:54:45.905Z,9.457123
2022-12-03T08:55:46.939Z,9.456992
2022-12-03T08:56:45.892Z,9.456957
2022-12-03T08:57:45.892Z,9.457073
2022-12-03T08:58:45.890Z,9.457186
2022-12-03T08:59:46.005Z,9.457102
2022-12-03T09:00:45.890Z,9.457128
2022-12-03T09:01:45.930Z,9.457294
2022-12-03T09:02:45.870Z,9.457195
2022-12-03T09:03:45.870Z,9.457205
2022-12-03T09:04:45.844Z,9.457237
2022-12-03T09:05:45.835Z,9.457307
2022-12-03T09:06:45.816Z,9.457104
2022-12-03T09:07:45.873Z,9.457193
2022-12-03T09:08:45.786Z,9.457257
2022-12-03T09:09:45.779Z,9.457361
2022-12-03T09:10:45.788Z,9.457372
2022-12-03T09:11:45.776Z,9.457290
2022-12-03T09:12:45.753Z,9.457286
2022-12-03T09:13:45.755Z,9.457191
2022-12-03T09:14:45.734Z,9.457163
2022-12-03T09:15:45.752Z,9.457317
2022-12-03T09:16:45.851Z,9.457317
2022-12-03T09:17:45.710Z,9.457358
2022-12-03T09:18:45.708Z,9.457355
2022-12-03T09:19:46.351Z,9.457361
2022-12-03T09:20:46.708Z,9.457528
2022-12-03T09:21:45.676Z,9.457419
2022-12-03T09:22:45.671Z,9.457372
2022-12-03T09:23:45.659Z,9.457312
2022-12-03T09:24:45.649Z,9.457232
2022-12-03T09:25:45.665Z,9.457251
2022-12-03T09:26:45.642Z,9.457361
2022-12-03T09:27:45.622Z,9.457362
2022-12-03T09:28:45.616Z,9.457215
2022-12-03T09:29:45.595Z,9.457281
2022-12-03T09:30:45.594Z,9.457351
2022-12-03T09:31:45.653Z,9.457314
2022-12-03T09:32:45.571Z,9.457355
2022-12-03T09:33:45.568Z,9.457508
2022-12-03T09:34:45.557Z,9.457516
2022-12-03T09:35:45.552Z,9.457560
2022-12-03T09:36:45.562Z,9.457360
2022-12-03T09:37:45.529Z,9.457243
2022-12-03T09:38:47.873Z,9.457261
2022-12-03T09:39:46.516Z,9.457277
2022-12-03T09:40:45.504Z,9.457159
2022-12-03T09:41:45.525Z,9.457437
2022-12-03T09:42:45.489Z,9.457249
2022-12-03T09:44:47.483Z,9.457442
2022-12-03T09:46:20.360Z,9.457310
2022-12-03T09:46:45.455Z,9.457150
2022-12-03T09:47:45.432Z,9.457232
2022-12-03T09:48:45.433Z,9.457305
2022-12-03T09:49:45.429Z,9.457310
2022-12-03T09:50:45.409Z,9.457220
2022-12-03T09:51:45.414Z,9.457276
2022-12-03T09:52:45.412Z,9.457290
2022-12-03T09:53:45.410Z,9.457360
2022-12-03T09:54:47.589Z,9.457334
2022-12-03T09:55:46.366Z,9.457375
2022-12-03T09:56:45.380Z,9.457543
2022-12-03T09:57:45.356Z,9.457306
2022-12-03T09:58:45.350Z,9.457331
2022-12-03T09:59:45.327Z,9.457297
2022-12-03T10:00:45.321Z,9.457228
2022-12-03T10:01:45.400Z,9.457232
2022-12-03T10:02:45.325Z,9.457260
2022-12-03T10:03:45.281Z,9.457182
2022-12-03T10:04:45.383Z,9.457229
2022-12-03T10:05:48.210Z,9.457365
2022-12-03T10:06:46.524Z,9.457164
2022-12-03T10:07:45.374Z,9.457190
2022-12-03T10:08:45.244Z,9.457115
2022-12-03T10:09:45.235Z,9.457233
2022-12-03T10:10:45.229Z,9.457156
2022-12-03T10:11:45.230Z,9.457196
2022-12-03T10:12:45.208Z,9.457247
2022-12-03T10:13:45.193Z,9.457341
2022-12-03T10:14:45.186Z,9.457338
2022-12-03T10:15:45.175Z,9.457347
2022-12-03T10:16:45.289Z,9.457343
2022-12-03T10:17:45.161Z,9.457291
2022-12-03T10:18:45.152Z,9.457241
2022-12-03T10:19:45.146Z,9.457129
2022-12-03T10:20:45.121Z,9.457362
2022-12-03T10:21:46.151Z,9.457361
2022-12-03T10:22:45.118Z,9.457333
2022-12-03T10:23:46.473Z,9.457383
2022-12-03T10:24:45.229Z,9.457284
2022-12-03T10:25:45.094Z,9.457445
2022-12-03T10:26:45.101Z,9.457474
2022-12-03T10:27:45.062Z,9.457411
2022-12-03T10:28:45.064Z,9.457386
2022-12-03T10:29:45.061Z,9.456846
2022-12-03T10:30:45.127Z,9.457108
2022-12-03T10:31:45.058Z,9.457446
2022-12-03T10:32:45.028Z,9.457494
2022-12-03T10:33:45.026Z,9.457391
2022-12-03T10:34:45.009Z,9.457083
2022-12-03T10:35:44.994Z,9.457107
2022-12-03T10:36:45.024Z,9.457006
2022-12-03T10:37:44.992Z,9.457008
2022-12-03T10:38:44.973Z,9.457132
2022-12-03T10:39:44.974Z,9.457225
2022-12-03T10:40:44.959Z,9.457229
2022-12-03T10:41:44.961Z,9.457240
2022-12-03T10:42:44.939Z,9.457212
2022-12-03T10:43:44.917Z,9.457114
2022-12-03T10:44:44.921Z,9.457184
2022-12-03T10:45:44.960Z,9.457214
2022-12-03T10:46:45.111Z,9.457101
2022-12-03T10:47:44.964Z,9.457255
2022-12-03T10:48:44.930Z,9.457301
2022-12-03T10:49:44.880Z,9.457310
2022-12-03T10:50:44.973Z,9.457279
2022-12-03T10:51:44.879Z,9.457360
2022-12-03T10:52:44.853Z,9.457328
2022-12-03T10:53:44.844Z,9.457330
2022-12-03T10:54:44.839Z,9.457341
2022-12-03T10:55:44.823Z,9.457165
2022-12-03T10:56:44.834Z,9.457067
2022-12-03T10:57:46.119Z,9.457173
2022-12-03T10:58:45.797Z,9.457195
2022-12-03T10:59:44.803Z,9.457157
2022-12-03T11:00:45.783Z,9.457188
2022-12-03T11:01:44.913Z,9.457322
2022-12-03T11:02:44.761Z,9.457273
2022-12-03T11:03:44.810Z,9.457202
2022-12-03T11:04:44.745Z,9.457231
2022-12-03T11:05:44.729Z,9.457097
2022-12-03T11:06:44.743Z,9.457315
2022-12-03T11:07:44.779Z,9.457379
2022-12-03T11:08:44.715Z,9.457210
2022-12-03T11:09:44.693Z,9.457203
2022-12-03T11:10:44.696Z,9.457220
2022-12-03T11:11:44.741Z,9.457316
2022-12-03T11:12:44.678Z,9.457264
2022-12-03T11:13:44.687Z,9.457232
2022-12-03T11:14:44.679Z,9.457144
2022-12-03T11:15:44.726Z,9.457268
2022-12-03T11:16:44.697Z,9.457434
2022-12-03T11:17:44.676Z,9.457445
2022-12-03T11:18:44.659Z,9.457482
2022-12-03T11:19:44.672Z,9.457303
2022-12-03T11:20:44.601Z,9.457324
2022-12-03T11:21:44.678Z,9.457330
2022-12-03T11:22:45.584Z,9.457339
2022-12-03T11:23:44.577Z,9.457299
2022-12-03T11:24:44.552Z,9.457340
2022-12-03T11:25:44.560Z,9.457249
2022-12-03T11:26:44.571Z,9.457364
2022-12-03T11:27:44.534Z,9.457279
2022-12-03T11:28:44.535Z,9.457206
2022-12-03T11:29:44.530Z,9.457374
2022-12-03T11:30:44.531Z,9.457405
2022-12-03T11:31:44.715Z,9.457341
2022-12-03T11:32:44.500Z,9.457353
2022-12-03T11:33:44.499Z,9.457544
2022-12-03T11:34:44.479Z,9.457232
2022-12-03T11:35:44.470Z,9.457239
2022-12-03T11:37:01.116Z,9.457343
2022-12-03T11:37:46.459Z,9.457396
2022-12-03T11:38:50.752Z,9.457454
2022-12-03T11:39:45.439Z,9.457364
2022-12-03T11:40:44.426Z,9.457312
2022-12-03T11:41:44.442Z,9.457093
2022-12-03T11:42:44.412Z,9.457209
2022-12-03T11:43:44.415Z,9.457270
2022-12-03T11:44:44.393Z,9.457272
2022-12-03T11:45:44.389Z,9.457167
2022-12-03T11:46:44.454Z,9.457176
2022-12-03T11:47:44.362Z,9.457397
2022-12-03T11:48:44.360Z,9.457109
2022-12-03T11:49:44.356Z,9.457069
2022-12-03T11:50:44.373Z,9.457120
2022-12-03T11:51:44.366Z,9.457169
2022-12-03T11:52:44.347Z,9.457218
2022-12-03T11:53:44.314Z,9.457315
2022-12-03T11:54:44.304Z,9.457234
2022-12-03T11:55:44.301Z,9.457210
2022-12-03T11:56:44.357Z,9.457158
2022-12-03T11:57:44.288Z,9.457125
2022-12-03T11:58:44.275Z,9.457027